Time;durP1;ratioP1;P1;durP2;ratioP2;P2;SDS_P1;SDS_P2;PMS_P1;PMS_P2;Temp;Humidity;BMP_temperature;BMP_pressure;BME280_temperature;BME280_humidity;BME280_pressure;Samples;Min_cycle;Max_cycle;Signal;HPM_P1;HPM_P2
2021/08/01 00:01:36;;;;;;;9.63;2.70;;;;;;;;;;5136401;27;20618;-81
2021/08/01 00:04:03;;;;;;;7.10;2.50;;;;;;;;;;5137168;27;20292;-82
2021/08/01 00:06:32;;;;;;;6.10;2.60;;;;;;;;;;5136687;27;20254;-82
2021/08/01 00:08:59;;;;;;;7.10;2.40;;;;;;;;;;5137160;27;20304;-82
2021/08/01 00:11:26;;;;;;;9.97;2.53;;;;;;;;;;5136120;27;20252;-82
2021/08/01 00:13:53;;;;;;;6.90;2.77;;;;;;;;;;5136256;27;20197;-82
2021/08/01 00:16:21;;;;;;;8.40;2.60;;;;;;;;;;5136419;27;20308;-82
2021/08/01 00:18:48;;;;;;;7.40;2.73;;;;;;;;;;5135431;27;20628;-82
2021/08/01 00:21:15;;;;;;;4.47;2.30;;;;;;;;;;5136353;27;20216;-82
2021/08/01 00:23:44;;;;;;;6.67;2.53;;;;;;;;;;5135760;27;20228;-82
2021/08/01 00:26:11;;;;;;;6.13;2.50;;;;;;;;;;5136147;27;20284;-82
2021/08/01 00:28:38;;;;;;;7.10;2.80;;;;;;;;;;5135870;27;20228;-82
2021/08/01 00:31:05;;;;;;;9.07;2.43;;;;;;;;;;5135570;27;20307;-82
2021/08/01 00:33:32;;;;;;;6.20;2.40;;;;;;;;;;5135599;27;20292;-82
2021/08/01 00:35:59;;;;;;;7.57;2.70;;;;;;;;;;5135898;27;20283;-82
2021/08/01 00:38:27;;;;;;;9.20;2.63;;;;;;;;;;5136279;27;20710;-82
2021/08/01 00:40:55;;;;;;;8.83;2.63;;;;;;;;;;5136117;27;20233;-82
2021/08/01 00:43:23;;;;;;;9.07;2.53;;;;;;;;;;5136856;27;20198;-82
2021/08/01 00:45:51;;;;;;;10.90;2.83;;;;;;;;;;5136551;27;20687;-82
2021/08/01 00:48:18;;;;;;;8.30;3.13;;;;;;;;;;5135481;27;20283;-82
2021/08/01 00:50:45;;;;;;;8.67;2.67;;;;;;;;;;5135228;27;20303;-82
2021/08/01 00:53:13;;;;;;;7.00;3.00;;;;;;;;;;5133380;27;20763;-82
2021/08/01 00:55:40;;;;;;;7.00;3.00;;;;;;;;;;5133415;27;20281;-81
2021/08/01 00:58:09;;;;;;;11.80;3.07;;;;;;;;;;5133575;27;20197;-81
2021/08/01 01:00:57;;;;;;;6.43;2.80;;;;;;;;;;5133236;27;20301;-82
2021/08/01 01:03:27;;;;;;;7.00;2.77;;;;;;;;;;5133388;27;20249;-82
2021/08/01 01:05:58;;;;;;;7.57;2.87;;;;;;;;;;5133187;27;20296;-82
2021/08/01 01:08:30;;;;;;;6.80;2.93;;;;;;;;;;5133416;27;20223;-82
2021/08/01 01:11:00;;;;;;;6.37;3.00;;;;;;;;;;5133177;27;20217;-82
2021/08/01 01:13:29;;;;;;;8.43;2.90;;;;;;;;;;5133008;27;20370;-82
2021/08/01 01:15:57;;;;;;;5.63;2.77;;;;;;;;;;5133401;27;20233;-83
2021/08/01 01:18:26;;;;;;;9.03;3.00;;;;;;;;;;5133375;27;20641;-81
2021/08/01 01:21:20;;;;;;;6.23;3.00;;;;;;;;;;5133111;27;20195;-82
2021/08/01 01:23:49;;;;;;;7.47;2.70;;;;;;;;;;5133125;27;20276;-82
2021/08/01 01:26:17;;;;;;;8.50;2.70;;;;;;;;;;5133242;27;20228;-82
2021/08/01 01:28:49;;;;;;;10.00;3.40;;;;;;;;;;5132370;27;20280;-82
2021/08/01 01:31:30;;;;;;;6.00;2.53;;;;;;;;;;5133387;27;20252;-82
2021/08/01 01:34:12;;;;;;;6.70;2.70;;;;;;;;;;5133156;27;20200;-82
2021/08/01 01:36:43;;;;;;;9.87;2.90;;;;;;;;;;5133442;27;20231;-81
2021/08/01 01:39:10;;;;;;;6.57;2.47;;;;;;;;;;5133577;27;20208;-82
2021/08/01 01:41:39;;;;;;;6.00;2.67;;;;;;;;;;5133123;27;20288;-82
2021/08/01 01:44:07;;;;;;;6.60;2.27;;;;;;;;;;5135312;27;20310;-82
2021/08/01 01:46:35;;;;;;;5.33;2.60;;;;;;;;;;5137286;27;20287;-82
2021/08/01 01:49:03;;;;;;;8.07;2.67;;;;;;;;;;5136996;27;20605;-82
2021/08/01 01:51:31;;;;;;;6.17;2.67;;;;;;;;;;5136807;27;20312;-82
2021/08/01 01:54:02;;;;;;;5.97;2.50;;;;;;;;;;5138273;27;20672;-82
2021/08/01 01:56:30;;;;;;;4.90;2.80;;;;;;;;;;5157663;27;20196;-82
2021/08/01 01:58:57;;;;;;;9.00;3.10;;;;;;;;;;5157229;27;20219;-82
2021/08/01 02:01:25;;;;;;;6.67;2.60;;;;;;;;;;5157459;27;20279;-82
2021/08/01 02:03:52;;;;;;;7.77;2.67;;;;;;;;;;5157616;27;20224;-82
2021/08/01 02:06:19;;;;;;;5.90;2.67;;;;;;;;;;5157473;27;20203;-82
2021/08/01 02:08:50;;;;;;;6.50;2.70;;;;;;;;;;5120504;27;20309;-81
2021/08/01 02:11:23;;;;;;;5.00;2.57;;;;;;;;;;5115816;28;20221;-82
2021/08/01 02:13:52;;;;;;;6.70;2.77;;;;;;;;;;5115635;27;20571;-82
2021/08/01 02:16:20;;;;;;;7.60;2.87;;;;;;;;;;5116118;28;20642;-82
2021/08/01 02:18:50;;;;;;;6.70;2.47;;;;;;;;;;5116107;28;20229;-82
2021/08/01 02:21:19;;;;;;;8.63;3.00;;;;;;;;;;5116108;27;20202;-82
2021/08/01 02:23:47;;;;;;;7.30;2.83;;;;;;;;;;5115710;28;20284;-82
2021/08/01 02:26:16;;;;;;;6.43;3.00;;;;;;;;;;5115617;28;20204;-82
2021/08/01 02:28:45;;;;;;;7.23;3.00;;;;;;;;;;5115740;28;20297;-82
2021/08/01 02:31:13;;;;;;;5.93;2.77;;;;;;;;;;5115557;27;20281;-82
2021/08/01 02:33:41;;;;;;;9.70;3.10;;;;;;;;;;5115805;28;20288;-82
2021/08/01 02:36:09;;;;;;;9.73;2.67;;;;;;;;;;5115113;27;20664;-82
2021/08/01 02:38:37;;;;;;;8.80;2.93;;;;;;;;;;5115638;27;20284;-82
2021/08/01 02:41:06;;;;;;;8.43;2.80;;;;;;;;;;5122855;27;20235;-83
2021/08/01 02:43:34;;;;;;;9.00;2.87;;;;;;;;;;5156511;27;20740;-82
2021/08/01 02:46:03;;;;;;;5.13;3.07;;;;;;;;;;5156730;27;20200;-82
2021/08/01 02:48:33;;;;;;;5.87;2.97;;;;;;;;;;5156580;27;20196;-83
2021/08/01 02:51:02;;;;;;;8.20;3.20;;;;;;;;;;5152743;27;20287;-83
2021/08/01 02:53:29;;;;;;;7.47;3.47;;;;;;;;;;5115223;28;20329;-83
2021/08/01 02:56:00;;;;;;;6.43;2.83;;;;;;;;;;5112999;28;20230;-82
2021/08/01 02:58:28;;;;;;;7.70;3.43;;;;;;;;;;5115164;27;20695;-82
2021/08/01 03:00:55;;;;;;;8.93;2.97;;;;;;;;;;5115159;28;20226;-83
2021/08/01 03:03:25;;;;;;;7.10;3.23;;;;;;;;;;5115028;28;20257;-83
2021/08/01 03:05:52;;;;;;;6.30;3.10;;;;;;;;;;5115288;28;20736;-82
2021/08/01 03:08:19;;;;;;;13.93;3.43;;;;;;;;;;5114974;28;20245;-83
2021/08/01 03:10:48;;;;;;;7.33;3.30;;;;;;;;;;5114873;28;20229;-82
2021/08/01 03:13:15;;;;;;;9.33;3.60;;;;;;;;;;5114925;28;20325;-83
2021/08/01 03:15:43;;;;;;;6.93;3.13;;;;;;;;;;5115334;28;20289;-82
2021/08/01 03:18:10;;;;;;;7.13;3.27;;;;;;;;;;5115095;28;20801;-82
2021/08/01 03:20:39;;;;;;;6.43;3.03;;;;;;;;;;5114832;28;20292;-82
2021/08/01 03:23:06;;;;;;;10.57;3.70;;;;;;;;;;5114746;28;20294;-82
2021/08/01 03:25:34;;;;;;;6.67;3.73;;;;;;;;;;5114782;28;20288;-82
2021/08/01 03:28:02;;;;;;;7.17;3.43;;;;;;;;;;5114722;28;20207;-82
2021/08/01 03:30:29;;;;;;;6.77;3.47;;;;;;;;;;5114496;28;20661;-82
2021/08/01 03:32:57;;;;;;;8.00;3.33;;;;;;;;;;5114518;28;20320;-83
2021/08/01 03:35:24;;;;;;;8.13;3.50;;;;;;;;;;5114361;28;20236;-83
2021/08/01 03:37:53;;;;;;;8.87;3.27;;;;;;;;;;5114463;28;20248;-82
2021/08/01 03:40:20;;;;;;;8.20;3.40;;;;;;;;;;5114062;27;20293;-82
2021/08/01 03:42:47;;;;;;;6.63;3.47;;;;;;;;;;5114494;28;20284;-82
2021/08/01 03:45:14;;;;;;;5.27;2.90;;;;;;;;;;5114526;27;20277;-83
2021/08/01 03:47:42;;;;;;;10.03;3.47;;;;;;;;;;5114254;28;20200;-82
2021/08/01 03:50:09;;;;;;;8.10;3.83;;;;;;;;;;5113953;28;20252;-82
2021/08/01 03:52:37;;;;;;;8.87;3.83;;;;;;;;;;5113885;28;20321;-82
2021/08/01 03:55:06;;;;;;;6.13;3.50;;;;;;;;;;5114189;28;20292;-82
2021/08/01 03:57:33;;;;;;;9.87;3.53;;;;;;;;;;5114237;28;20288;-82
2021/08/01 04:00:00;;;;;;;9.07;4.00;;;;;;;;;;5114032;28;20232;-83
2021/08/01 04:02:27;;;;;;;6.53;3.23;;;;;;;;;;5113990;27;20273;-82
2021/08/01 04:04:54;;;;;;;9.20;3.47;;;;;;;;;;5114003;28;20240;-82
2021/08/01 04:07:21;;;;;;;8.60;3.70;;;;;;;;;;5113619;28;20318;-82
2021/08/01 04:09:49;;;;;;;7.77;4.03;;;;;;;;;;5113309;28;20625;-82
2021/08/01 04:12:19;;;;;;;7.60;3.93;;;;;;;;;;5113337;28;20302;-83
2021/08/01 04:14:46;;;;;;;9.43;3.80;;;;;;;;;;5113941;28;20201;-82
2021/08/01 04:17:17;;;;;;;8.50;3.53;;;;;;;;;;5113497;28;20288;-82
2021/08/01 04:19:45;;;;;;;8.33;3.50;;;;;;;;;;5113769;28;20197;-82
2021/08/01 04:22:12;;;;;;;9.90;3.70;;;;;;;;;;5113357;28;20215;-82
2021/08/01 04:24:39;;;;;;;7.37;3.87;;;;;;;;;;5113419;28;20595;-82
2021/08/01 04:27:07;;;;;;;9.97;4.20;;;;;;;;;;5113547;28;20284;-83
2021/08/01 04:29:35;;;;;;;8.20;4.07;;;;;;;;;;5132936;27;20279;-82
2021/08/01 04:32:02;;;;;;;9.70;4.00;;;;;;;;;;5154725;27;20312;-82
2021/08/01 04:34:30;;;;;;;8.70;4.20;;;;;;;;;;5154570;27;20197;-82
2021/08/01 04:36:57;;;;;;;6.80;3.90;;;;;;;;;;5154377;27;20196;-82
2021/08/01 04:39:24;;;;;;;8.60;4.10;;;;;;;;;;5154522;27;20287;-82
2021/08/01 04:41:51;;;;;;;6.27;4.00;;;;;;;;;;5154776;27;20279;-82
2021/08/01 04:44:18;;;;;;;6.57;4.03;;;;;;;;;;5154445;27;20216;-82
2021/08/01 04:46:47;;;;;;;9.80;4.10;;;;;;;;;;5154033;27;20281;-83
2021/08/01 04:49:14;;;;;;;7.77;4.20;;;;;;;;;;5154398;27;20279;-83
2021/08/01 04:51:41;;;;;;;9.20;4.40;;;;;;;;;;5138544;27;20395;-82
2021/08/01 04:54:09;;;;;;;9.57;4.37;;;;;;;;;;5113026;28;20312;-82
2021/08/01 04:56:36;;;;;;;9.87;4.20;;;;;;;;;;5113200;28;20237;-83
2021/08/01 04:59:03;;;;;;;5.50;3.83;;;;;;;;;;5113178;28;20293;-82
2021/08/01 05:01:30;;;;;;;7.83;4.20;;;;;;;;;;5112721;28;20619;-82
2021/08/01 05:03:59;;;;;;;5.57;4.10;;;;;;;;;;5113063;28;20281;-83
2021/08/01 05:06:27;;;;;;;9.40;4.17;;;;;;;;;;5112893;28;20276;-83
2021/08/01 05:08:54;;;;;;;7.40;3.87;;;;;;;;;;5112927;28;20309;-82
2021/08/01 05:11:21;;;;;;;11.50;4.33;;;;;;;;;;5112683;28;20281;-83
2021/08/01 05:13:48;;;;;;;7.63;4.27;;;;;;;;;;5112518;28;20313;-83
2021/08/01 05:16:16;;;;;;;11.03;4.77;;;;;;;;;;5112644;28;20685;-82
2021/08/01 05:18:44;;;;;;;6.90;4.37;;;;;;;;;;5112346;28;20656;-82
2021/08/01 05:21:12;;;;;;;7.67;4.23;;;;;;;;;;5112574;28;20266;-83
2021/08/01 05:23:40;;;;;;;6.57;4.10;;;;;;;;;;5112639;28;20233;-82
2021/08/01 05:26:07;;;;;;;8.70;4.50;;;;;;;;;;5112495;28;20204;-82
2021/08/01 05:28:34;;;;;;;8.17;4.20;;;;;;;;;;5112491;28;20624;-83
2021/08/01 05:31:01;;;;;;;6.03;3.67;;;;;;;;;;5112633;28;20233;-83
2021/08/01 05:33:28;;;;;;;8.03;3.93;;;;;;;;;;5112334;28;20313;-82
2021/08/01 05:35:55;;;;;;;7.43;4.37;;;;;;;;;;5112281;28;20280;-83
2021/08/01 05:38:24;;;;;;;7.67;3.90;;;;;;;;;;5112566;28;20292;-83
2021/08/01 05:40:51;;;;;;;8.03;3.97;;;;;;;;;;5112521;28;20288;-82
2021/08/01 05:43:18;;;;;;;8.73;3.93;;;;;;;;;;5112437;28;20314;-82
2021/08/01 05:45:46;;;;;;;5.97;3.90;;;;;;;;;;5112678;28;20233;-83
2021/08/01 05:48:13;;;;;;;8.03;4.23;;;;;;;;;;5112699;28;20608;-83
2021/08/01 05:50:40;;;;;;;6.87;4.10;;;;;;;;;;5112393;28;20276;-83
2021/08/01 05:53:07;;;;;;;8.33;4.20;;;;;;;;;;5112240;28;20658;-83
2021/08/01 05:55:36;;;;;;;5.23;3.83;;;;;;;;;;5112765;28;20198;-83
2021/08/01 05:58:03;;;;;;;8.73;4.03;;;;;;;;;;5112766;28;20633;-83
2021/08/01 06:00:30;;;;;;;14.30;4.00;;;;;;;;;;5112299;28;20634;-82
2021/08/01 06:02:57;;;;;;;6.30;3.90;;;;;;;;;;5112563;28;20285;-82
2021/08/01 06:05:25;;;;;;;5.00;3.23;;;;;;;;;;5112245;28;20300;-82
2021/08/01 06:07:52;;;;;;;6.67;3.40;;;;;;;;;;5112244;28;20205;-83
2021/08/01 06:10:19;;;;;;;5.60;2.88;;;;;;;;;;5112341;28;20218;-82
2021/08/01 06:12:47;;;;;;;5.18;3.03;;;;;;;;;;5112031;28;20316;-82
2021/08/01 06:15:15;;;;;;;5.53;2.50;;;;;;;;;;5112359;28;20292;-83
2021/08/01 06:17:42;;;;;;;5.40;2.40;;;;;;;;;;5112000;28;20236;-83
2021/08/01 06:20:11;;;;;;;3.63;2.35;;;;;;;;;;5111900;28;20700;-83
2021/08/01 06:22:38;;;;;;;5.95;2.38;;;;;;;;;;5112265;28;20225;-83
2021/08/01 06:25:06;;;;;;;4.57;2.30;;;;;;;;;;5112316;28;20285;-83
2021/08/01 06:27:33;;;;;;;5.22;2.25;;;;;;;;;;5112057;28;20229;-83
2021/08/01 06:30:02;;;;;;;3.97;2.30;;;;;;;;;;5112465;28;20233;-83
2021/08/01 06:32:29;;;;;;;3.72;2.45;;;;;;;;;;5115675;28;20198;-83
2021/08/01 06:34:56;;;;;;;6.40;2.47;;;;;;;;;;5115552;28;20193;-83
2021/08/01 06:37:24;;;;;;;6.90;2.20;;;;;;;;;;5115433;27;20706;-83
2021/08/01 06:39:51;;;;;;;5.35;2.08;;;;;;;;;;5115930;28;20281;-83
2021/08/01 06:42:18;;;;;;;4.22;2.10;;;;;;;;;;5115818;27;20233;-83
2021/08/01 06:44:45;;;;;;;4.63;2.10;;;;;;;;;;5115423;28;20289;-83
2021/08/01 06:47:14;;;;;;;3.30;2.08;;;;;;;;;;5115293;28;20320;-83
2021/08/01 06:49:41;;;;;;;2.60;2.03;;;24.20;99.90;;;;;;5114927;28;20280;-83
2021/08/01 06:52:08;;;;;;;3.33;1.90;;;24.50;99.90;;;;;;5114960;28;20210;-83
2021/08/01 06:54:35;;;;;;;4.93;2.10;;;;;;;;;;5115023;28;20312;-83
2021/08/01 06:57:02;;;;;;;4.82;2.17;;;24.70;99.90;;;;;;5115475;27;20540;-83
2021/08/01 06:59:29;;;;;;;5.88;1.95;;;;;;;;;;5115157;28;20694;-83
2021/08/01 07:01:56;;;;;;;3.13;2.08;;;;;;;;;;5114507;27;20293;-83
2021/08/01 07:04:25;;;;;;;2.72;2.20;;;22.10;99.90;;;;;;5115097;28;20740;-83
2021/08/01 07:06:52;;;;;;;2.72;1.90;;;;;;;;;;5114978;28;20216;-83
2021/08/01 07:09:22;;;;;;;4.35;2.53;;;;;;;;;;5115132;28;20249;-77
2021/08/01 07:11:49;;;;;;;4.38;1.95;;;;;;;;;;5114834;28;20288;-77
2021/08/01 07:14:16;;;;;;;4.85;1.90;;;;;;;;;;5114965;28;20312;-77
2021/08/01 07:16:44;;;;;;;2.17;1.75;;;;;;;;;;5114626;28;20284;-78
2021/08/01 07:19:11;;;;;;;2.60;1.95;;;22.70;99.90;;;;;;5114795;28;20197;-78
2021/08/01 07:21:40;;;;;;;3.88;1.95;;;;;;;;;;5114465;28;20705;-78
2021/08/01 07:24:07;;;;;;;4.95;1.80;;;;;;;;;;5114723;28;20194;-78
2021/08/01 07:26:34;;;;;;;3.47;1.77;;;;;;;;;;5114392;28;20289;-78
2021/08/01 07:29:01;;;;;;;3.20;1.80;;;25.50;99.90;;;;;;5114276;28;20202;-78
2021/08/01 07:31:28;;;;;;;2.92;1.63;;;;;;;;;;5114165;28;20293;-78
2021/08/01 07:33:57;;;;;;;5.18;1.77;;;;;;;;;;5114355;28;20312;-78
2021/08/01 07:36:24;;;;;;;3.58;1.60;;;22.50;99.90;;;;;;5114103;28;20520;-77
2021/08/01 07:38:52;;;;;;;3.40;1.80;;;;;;;;;;5114189;28;20197;-77
2021/08/01 07:41:20;;;;;;;4.00;1.55;;;;;;;;;;5113878;28;20656;-78
2021/08/01 07:43:47;;;;;;;3.17;1.65;;;;;;;;;;5114323;28;20285;-78
2021/08/01 07:46:14;;;;;;;2.03;1.63;;;;;;;;;;5113969;28;20713;-78
2021/08/01 07:48:41;;;;;;;4.28;1.73;;;;;;;;;;5113980;28;20285;-77
2021/08/01 07:51:08;;;;;;;2.90;1.55;;;;;;;;;;5113972;28;20710;-77
2021/08/01 07:53:35;;;;;;;4.90;1.50;;;;;;;;;;5113902;28;20320;-77
2021/08/01 07:56:04;;;;;;;5.55;1.75;;;;;;;;;;5113796;28;20204;-78
2021/08/01 07:58:32;;;;;;;3.42;1.70;;;;;;;;;;5113732;28;20204;-77
2021/08/01 08:00:59;;;;;;;3.10;1.80;;;;;;;;;;5113427;28;20748;-78
2021/08/01 08:03:26;;;;;;;2.78;1.70;;;;;;;;;;5113669;28;20233;-78
2021/08/01 08:05:53;;;;;;;2.60;1.60;;;;;;;;;;5113522;28;20216;-77
2021/08/01 08:08:20;;;;;;;2.53;1.52;;;;;;;;;;5113968;28;20659;-78
2021/08/01 08:10:47;;;;;;;2.50;1.50;;;;;;;;;;5113868;28;20622;-77
2021/08/01 08:13:16;;;;;;;3.80;1.83;;;;;;;;;;5113790;28;20612;-77
2021/08/01 08:15:43;;;;;;;4.28;1.70;;;;;;;;;;5112978;28;20720;-78
2021/08/01 08:18:10;;;;;;;3.53;1.90;;;;;;;;;;5113683;28;20292;-77
2021/08/01 08:20:37;;;;;;;4.78;1.80;;;;;;;;;;5113500;28;20289;-78
2021/08/01 08:23:05;;;;;;;3.00;1.52;;;;;;;;;;5113299;28;20193;-77
2021/08/01 08:25:32;;;;;;;2.65;1.77;;;;;;;;;;5113325;28;20193;-77
2021/08/01 08:27:59;;;;;;;2.60;1.55;;;;;;;;;;5113117;28;20296;-78
2021/08/01 08:30:27;;;;;;;4.22;1.75;;;;;;;;;;5113104;28;20197;-77
2021/08/01 08:32:55;;;;;;;3.78;1.75;;;;;;;;;;5113111;28;20284;-77
2021/08/01 08:35:22;;;;;;;2.05;1.40;;;;;;;;;;5113147;27;20223;-77
2021/08/01 08:37:50;;;;;;;1.90;1.65;;;;;;;;;;5113067;28;20752;-78
2021/08/01 08:40:18;;;;;;;2.65;1.60;;;;;;;;;;5113077;28;20259;-78
2021/08/01 08:42:45;;;;;;;3.20;1.45;;;;;;;;;;5112947;28;20732;-77
2021/08/01 08:45:15;;;;;;;2.45;1.40;;;;;;;;;;5112616;28;20189;-78
2021/08/01 08:47:44;;;;;;;3.30;1.48;;;;;;;;;;5113184;28;20219;-77
2021/08/01 08:50:12;;;;;;;2.40;1.73;;;;;;;;;;5112618;28;20207;-77
2021/08/01 08:52:40;;;;;;;3.40;1.33;;;;;;;;;;5127901;27;20355;-78
2021/08/01 08:55:07;;;;;;;2.50;1.70;;;;;;;;;;5133393;27;20223;-77
2021/08/01 08:57:38;;;;;;;3.65;1.75;;;;;;;;;;5133332;27;20284;-77
2021/08/01 09:00:07;;;;;;;3.38;1.52;;;;;;;;;;5132833;27;20203;-77
2021/08/01 09:02:34;;;;;;;3.30;1.65;;;;;;;;;;5133179;27;20284;-77
2021/08/01 09:05:04;;;;;;;3.67;1.58;;;;;;;;;;5133248;27;20200;-77
2021/08/01 09:07:31;;;;;;;2.63;1.55;;;;;;;;;;5133311;27;20294;-78
2021/08/01 09:09:58;;;;;;;2.25;1.60;;;;;;;;;;5132990;27;20574;-77
2021/08/01 09:12:25;;;;;;;2.40;1.50;;;;;;;;;;5132927;27;20739;-78
2021/08/01 09:15:07;;;;;;;2.20;1.30;;;;;;;;;;5132865;27;20580;-77
2021/08/01 09:17:35;;;;;;;1.92;1.10;;;;;;;;;;5133012;27;20751;-78
2021/08/01 09:20:14;;;;;;;2.28;1.20;;;;;;;;;;5133090;27;20284;-78
2021/08/01 09:22:41;;;;;;;2.17;1.40;;;;;;;;;;5132794;27;20257;-78
2021/08/01 09:25:17;;;;;;;2.10;1.10;;;;;;;;;;5133251;27;20284;-78
2021/08/01 09:27:44;;;;;;;2.17;1.38;;;;;;;;;;5132613;27;20641;-78
2021/08/01 09:30:12;;;;;;;2.60;1.33;;;;;;;;;;5132923;27;20288;-78
2021/08/01 09:32:47;;;;;;;2.40;1.27;;;;;;;;;;5133086;27;20276;-78
2021/08/01 09:35:18;;;;;;;1.60;1.20;;;;;;;;;;5132818;27;20319;-78
2021/08/01 09:37:55;;;;;;;3.22;1.58;;;;;;;;;;5132791;27;20207;-78
2021/08/01 09:40:22;;;;;;;2.38;1.40;;;;;;;;;;5133361;27;20608;-77
2021/08/01 09:42:49;;;;;;;2.33;1.30;;;;;;;;;;5132770;27;20239;-78
2021/08/01 09:45:17;;;;;;;2.55;1.40;;;;;;;;;;5133226;27;20280;-78
2021/08/01 09:47:45;;;;;;;2.58;1.15;;;;;;;;;;5133318;27;20212;-77
2021/08/01 09:50:13;;;;;;;2.30;1.20;;;;;;;;;;5133173;27;20284;-78
2021/08/01 09:52:41;;;;;;;1.30;1.20;;;;;;;;;;5132778;27;20327;-78
2021/08/01 09:55:16;;;;;;;2.67;1.33;;;;;;;;;;5132825;27;20311;-79
2021/08/01 09:57:50;;;;;;;1.65;1.33;;;;;;;;;;5132535;27;20196;-78
2021/08/01 10:00:17;;;;;;;1.60;1.20;;;;;;;;;;5133113;27;20208;-78
2021/08/01 10:02:44;;;;;;;1.83;1.10;;;;;;;;;;5132783;27;20652;-79
2021/08/01 10:05:15;;;;;;;1.42;1.02;;;;;;;;;;5135289;27;20287;-78
2021/08/01 10:07:45;;;;;;;2.63;1.27;;;;;;;;;;5136837;27;20291;-78
2021/08/01 10:10:19;;;;;;;2.33;1.42;;;;;;;;;;5136589;27;20771;-78
2021/08/01 10:12:46;;;;;;;1.92;1.40;;;;;;;;;;5136721;27;20288;-78
2021/08/01 10:15:14;;;;;;;2.00;1.10;;;;;;;;;;5136594;27;20303;-78
2021/08/01 10:17:41;;;;;;;2.55;1.70;;;;;;;;;;5136593;27;20627;-79
2021/08/01 10:20:09;;;;;;;2.78;1.35;;;;;;;;;;5136640;27;20232;-78
2021/08/01 10:22:38;;;;;;;3.63;1.70;;;;;;;;;;5136263;27;20219;-78
2021/08/01 10:25:10;;;;;;;2.50;1.33;;;;;;;;;;5135951;27;20284;-78
2021/08/01 10:27:40;;;;;;;2.15;1.50;;;;;;;;;;5136642;27;20193;-78
2021/08/01 10:30:08;;;;;;;2.83;1.63;;;;;;;;;;5136449;27;20283;-78
2021/08/01 10:32:36;;;;;;;2.58;1.60;;;;;;;;;;5136690;27;20239;-78
2021/08/01 10:35:06;;;;;;;2.78;1.67;;;;;;;;;;5136250;27;20308;-78
2021/08/01 10:37:36;;;;;;;3.17;1.70;;;;;;;;;;5136536;27;20284;-78
2021/08/01 10:40:04;;;;;;;2.05;1.60;;;;;;;;;;5136011;27;20292;-78
2021/08/01 10:42:33;;;;;;;1.70;1.60;;;;;;;;;;5136607;27;20203;-77
2021/08/01 10:45:00;;;;;;;1.77;1.40;;;;;;;;;;5135901;27;20269;-78
2021/08/01 10:47:28;;;;;;;2.53;1.40;;;;;;;;;;5135878;27;20201;-78
2021/08/01 10:49:56;;;;;;;2.08;1.40;;;;;;;;;;5135824;27;20284;-78
2021/08/01 10:52:29;;;;;;;2.15;1.20;;;;;;;;;;5135505;27;20325;-78
2021/08/01 10:54:57;;;;;;;1.40;1.27;;;;;;;;;;5135621;27;20316;-78
2021/08/01 10:57:24;;;;;;;3.55;1.58;;;;;;;;;;5135965;27;20349;-78
2021/08/01 11:00:00;;;;;;;1.30;1.20;;;;;;;;;;5135576;27;20294;-78
2021/08/01 11:02:28;;;;;;;1.35;0.98;;;;;;;;;;5135695;27;20196;-78
2021/08/01 11:04:55;;;;;;;1.38;1.13;;;;;;;;;;5135388;27;20672;-79
2021/08/01 11:07:41;;;;;;;1.48;1.38;;;;;;;;;;5135612;27;20197;-78
2021/08/01 11:10:24;;;;;;;1.95;1.40;;;;;;;;;;5135107;27;20695;-76
2021/08/01 11:12:51;;;;;;;1.75;1.38;;;;;;;;;;5135264;27;20288;-78
2021/08/01 11:15:19;;;;;;;1.60;1.20;;;;;;;;;;5134942;27;20311;-78
2021/08/01 11:18:05;;;;;;;1.48;1.33;;;;;;;;;;5134906;27;20193;-79
2021/08/01 11:20:51;;;;;;;1.33;1.23;;;;;;;;;;5135319;27;20283;-78
2021/08/01 11:23:18;;;;;;;1.75;1.27;;;;;;;;;;5134877;27;20272;-78
2021/08/01 11:26:04;;;;;;;1.30;1.20;;;;;;;;;;5135069;27;20228;-78
2021/08/01 11:28:34;;;;;;;1.92;1.25;;;;;;;;;;5134825;27;20290;-78
2021/08/01 11:31:18;;;;;;;2.03;1.50;;;;;;;;;;5135256;27;20193;-77
2021/08/01 11:33:46;;;;;;;1.50;1.40;;;;;;;;;;5134865;27;20196;-78
2021/08/01 11:36:27;;;;;;;2.58;1.50;;;;;;;;;;5135400;27;20236;-77
2021/08/01 11:39:01;;;;;;;1.65;1.40;;;;;;;;;;5134753;27;20235;-77
2021/08/01 11:41:37;;;;;;;1.88;1.40;;;;;;;;;;5135021;27;20283;-77
2021/08/01 11:44:05;;;;;;;2.35;1.30;;;;;;;;;;5134755;27;20197;-77
2021/08/01 11:46:57;;;;;;;2.30;1.33;;;;;;;;;;5135029;27;20300;-77
2021/08/01 11:49:25;;;;;;;1.92;1.30;;;;;;;;;;5134778;27;20215;-78
2021/08/01 11:51:54;;;;;;;2.08;1.60;;;;;;;;;;5124806;27;20301;-78
2021/08/01 11:54:26;;;;;;;2.15;1.70;;;;;;;;;;5114144;28;20592;-77
2021/08/01 11:56:55;;;;;;;1.77;1.63;;;;;;;;;;5114191;28;20206;-77
2021/08/01 11:59:22;;;;;;;2.05;1.60;;;;;;;;;;5114075;28;20194;-77
2021/08/01 12:01:51;;;;;;;2.40;1.60;;;;;;;;;;5113860;28;20361;-77
2021/08/01 12:04:19;;;;;;;2.15;1.58;;;;;;;;;;5114104;28;20266;-76
2021/08/01 12:06:46;;;;;;;2.20;1.75;;;;;;;;;;5113519;28;20202;-77
2021/08/01 12:09:17;;;;;;;2.30;1.80;;;;;;;;;;5113679;28;20249;-77
2021/08/01 12:11:44;;;;;;;1.80;1.70;;;;;;;;;;5113701;28;20198;-77
2021/08/01 12:14:11;;;;;;;2.95;1.77;;;;;;;;;;5113680;28;20201;-76
2021/08/01 12:16:39;;;;;;;3.97;1.95;;;;;;;;;;5113807;27;20549;-77
2021/08/01 12:19:14;;;;;;;2.33;1.88;;;;;;;;;;5113811;28;20288;-77
2021/08/01 12:21:41;;;;;;;3.80;1.70;;;;;;;;;;5113428;28;20284;-77
2021/08/01 12:24:26;;;;;;;2.10;1.85;;;;;;;;;;5113828;28;20224;-77
2021/08/01 12:26:53;;;;;;;3.78;1.95;;;;;;;;;;5113443;28;20237;-77
2021/08/01 12:29:28;;;;;;;2.58;2.00;;;;;;;;;;5113336;28;20286;-77
2021/08/01 12:31:56;;;;;;;3.60;1.80;;;;;;;;;;5113703;28;20194;-77
2021/08/01 12:34:25;;;;;;;2.88;1.80;;;;;;;;;;5113163;28;20659;-77
2021/08/01 12:36:52;;;;;;;2.50;1.60;;;;;;;;;;5112837;28;20289;-77
2021/08/01 12:39:22;;;;;;;3.30;1.88;;;;;;;;;;5113335;28;20316;-77
2021/08/01 12:41:49;;;;;;;2.80;1.80;;;;;;;;;;5113465;28;20266;-78
2021/08/01 12:44:17;;;;;;;2.03;1.45;;;;;;;;;;5113278;28;20204;-77
2021/08/01 12:46:45;;;;;;;1.75;1.50;;;;;;;;;;5112923;28;20197;-77
2021/08/01 12:49:12;;;;;;;2.35;1.73;;;;;;;;;;5113344;28;20284;-77
2021/08/01 12:51:43;;;;;;;1.95;1.73;;;;;;;;;;5119866;27;20291;-77
2021/08/01 12:54:10;;;;;;;2.00;1.75;;;;;;;;;;5133214;27;20320;-77
2021/08/01 12:56:37;;;;;;;4.03;1.98;;;;;;;;;;5133086;27;20663;-77
2021/08/01 12:59:12;;;;;;;1.83;1.52;;;;;;;;;;5133758;27;20200;-77
2021/08/01 13:01:41;;;;;;;2.08;1.65;;;;;;;;;;5133548;27;20192;-77
2021/08/01 13:04:10;;;;;;;3.05;1.77;;;;;;;;;;5133100;27;20197;-77
2021/08/01 13:06:37;;;;;;;2.65;1.95;;;;;;;;;;5132798;27;20189;-77
2021/08/01 13:09:06;;;;;;;2.95;1.60;;;;;;;;;;5133371;27;20658;-77
2021/08/01 13:11:34;;;;;;;2.55;1.50;;;;;;;;;;5133616;27;20203;-77
2021/08/01 13:14:02;;;;;;;1.50;1.40;;;;;;;;;;5133452;27;20199;-77
2021/08/01 13:16:44;;;;;;;2.47;1.92;;;;;;;;;;5132009;27;20315;-77
2021/08/01 13:19:12;;;;;;;2.20;1.60;;;;;;;;;;5132685;27;20296;-77
2021/08/01 13:21:40;;;;;;;3.50;1.63;;;;;;;;;;5133370;27;20284;-77
2021/08/01 13:24:12;;;;;;;4.05;1.63;;;;;;;;;;5133512;27;20205;-77
2021/08/01 13:26:40;;;;;;;1.85;1.50;;;;;;;;;;5132737;27;20217;-77
2021/08/01 13:29:08;;;;;;;1.20;1.10;;;;;;;;;;5133347;27;20228;-77
2021/08/01 13:31:43;;;;;;;1.40;1.30;;;;;;;;;;5133271;27;20232;-77
2021/08/01 13:34:11;;;;;;;2.13;1.70;;;;;;;;;;5133222;27;20236;-77
2021/08/01 13:36:42;;;;;;;1.58;1.48;;;;;;;;;;5132864;27;20223;-77
2021/08/01 13:39:10;;;;;;;1.98;1.50;;;;;;;;;;5133955;27;20222;-77
2021/08/01 13:41:39;;;;;;;1.85;1.55;;;;;;;;;;5137489;27;20250;-77
2021/08/01 13:44:10;;;;;;;1.75;1.50;;;;;;;;;;5137500;27;20284;-77
2021/08/01 13:46:38;;;;;;;1.95;1.60;;;;;;;;;;5137433;27;20195;-77
2021/08/01 13:49:05;;;;;;;1.75;1.58;;;;;;;;;;5136881;27;20288;-77
2021/08/01 13:51:32;;;;;;;1.73;1.60;;;;;;;;;;5130477;27;20205;-77
2021/08/01 13:54:00;;;;;;;1.52;1.30;;;;;;;;;;5116181;28;20581;-77
2021/08/01 13:56:27;;;;;;;2.53;1.63;;;;;;;;;;5116456;28;20244;-77
2021/08/01 13:58:56;;;;;;;2.33;1.63;;;;;;;;;;5116496;28;20209;-77
2021/08/01 14:01:24;;;;;;;2.72;1.70;;;;;;;;;;5116440;28;20200;-78
2021/08/01 14:03:51;;;;;;;2.17;1.48;;;;;;;;;;5115904;28;20545;-78
2021/08/01 14:06:19;;;;;;;3.13;1.80;;;;;;;;;;5115989;28;20232;-78
2021/08/01 14:08:46;;;;;;;1.63;1.52;;;;;;;;;;5115924;28;20222;-77
2021/08/01 14:11:13;;;;;;;1.58;1.48;;;;;;;;;;5116127;28;20293;-77
2021/08/01 14:13:40;;;;;;;1.80;1.50;;;;;;;;;;5116027;28;20280;-76
2021/08/01 14:16:09;;;;;;;2.15;1.65;;;;;;;;;;5116042;28;20604;-78
2021/08/01 14:18:36;;;;;;;2.50;1.75;;;;;;;;;;5115320;28;20292;-77
2021/08/01 14:21:03;;;;;;;2.08;1.35;;;;;;;;;;5116098;28;20292;-78
2021/08/01 14:23:31;;;;;;;3.03;1.58;;;;;;;;;;5115775;28;20285;-77
2021/08/01 14:25:58;;;;;;;1.60;1.35;;;;;;;;;;5115773;27;20289;-77
2021/08/01 14:28:26;;;;;;;1.40;1.30;;;;;;;;;;5115774;27;20297;-77
2021/08/01 14:30:53;;;;;;;1.65;1.48;;;;;;;;;;5115500;28;20293;-77
2021/08/01 14:33:25;;;;;;;1.77;1.25;;;;;;;;;;5115259;28;20288;-77
2021/08/01 14:35:53;;;;;;;1.63;1.40;;;;;;;;;;5115551;27;20317;-77
2021/08/01 14:38:20;;;;;;;1.50;1.40;;;;;;;;;;5115609;28;20190;-77
2021/08/01 14:40:48;;;;;;;1.45;1.35;;;;;;;;;;5115185;28;20197;-78
2021/08/01 14:43:16;;;;;;;1.67;1.30;;;;;;;;;;5115535;28;20233;-77
2021/08/01 14:45:43;;;;;;;1.70;1.30;;;;;;;;;;5115310;28;20693;-77
2021/08/01 14:48:13;;;;;;;2.67;1.50;;;;;;;;;;5115108;28;20240;-77
2021/08/01 14:50:43;;;;;;;2.08;1.40;;;;;;;;;;5113778;28;20198;-77